createdAt,value
2018-08-06T00:02:08.348Z,100533.00
2018-08-06T00:07:11.641Z,100524.00
2018-08-06T00:12:14.709Z,100525.00
2018-08-06T00:17:17.741Z,100523.00
2018-08-06T00:22:21.102Z,100518.00
2018-08-06T00:27:24.075Z,100520.00
2018-08-06T00:32:27.416Z,100519.00
2018-08-06T00:37:30.407Z,100512.00
2018-08-06T00:42:33.639Z,100517.00
2018-08-06T00:47:36.908Z,100509.00
2018-08-06T00:52:40.023Z,100514.00
2018-08-06T00:57:43.671Z,100504.00
2018-08-06T01:02:46.748Z,100504.00
2018-08-06T01:07:50.097Z,100506.00
2018-08-06T01:12:53.211Z,100497.00
2018-08-06T01:17:56.314Z,100491.00
2018-08-06T01:22:59.345Z,100498.00
2018-08-06T01:28:02.516Z,100490.00
2018-08-06T01:33:05.707Z,100485.00
2018-08-06T01:38:09.032Z,100480.00
2018-08-06T01:43:12.195Z,100478.00
2018-08-06T01:48:15.348Z,100478.00
2018-08-06T01:53:18.347Z,100476.00
2018-08-06T01:58:21.288Z,100465.00
2018-08-06T02:03:24.578Z,100446.00
2018-08-06T02:08:27.580Z,100456.00
2018-08-06T02:13:30.581Z,100455.00
2018-08-06T02:18:33.784Z,100455.00
2018-08-06T02:23:37.008Z,100443.00
2018-08-06T02:28:40.077Z,100443.00
2018-08-06T02:33:43.287Z,100441.00
2018-08-06T02:38:46.320Z,100441.00
2018-08-06T02:43:49.733Z,100426.00
2018-08-06T02:48:52.789Z,100421.00
2018-08-06T02:53:56.052Z,100430.00
2018-08-06T02:58:59.199Z,100423.00
2018-08-06T03:04:02.428Z,100418.00
2018-08-06T03:09:09.748Z,100420.00
2018-08-06T03:14:12.790Z,100421.00
2018-08-06T03:19:15.822Z,100415.00
2018-08-06T03:24:18.815Z,100416.00
2018-08-06T03:29:22.087Z,100414.00
2018-08-06T03:34:25.127Z,100423.00
2018-08-06T03:39:28.295Z,100425.00
2018-08-06T03:44:31.298Z,100418.00
2018-08-06T03:49:34.280Z,100416.00
2018-08-06T03:54:37.592Z,100414.00
2018-08-06T03:59:40.569Z,100417.00
2018-08-06T04:04:43.563Z,100405.00
2018-08-06T04:09:46.835Z,100412.00
2018-08-06T04:14:49.923Z,100408.00
2018-08-06T04:19:53.115Z,100418.00
2018-08-06T04:24:56.202Z,100413.00
2018-08-06T04:29:59.175Z,100413.00
2018-08-06T04:35:02.368Z,100430.00
2018-08-06T04:40:07.574Z,100432.00
2018-08-06T04:45:11.135Z,100434.00
2018-08-06T04:50:14.758Z,100438.00
2018-08-06T04:55:17.776Z,100458.00
2018-08-06T05:00:21.075Z,100455.00
2018-08-06T05:05:24.403Z,100470.00
2018-08-06T05:10:27.703Z,100481.00
2018-08-06T05:15:30.795Z,100476.00
2018-08-06T05:20:34.004Z,100491.00
2018-08-06T05:25:37.238Z,100504.00
2018-08-06T05:30:40.350Z,100491.00
2018-08-06T05:35:43.539Z,100501.00
2018-08-06T05:40:46.583Z,100502.00
2018-08-06T05:45:49.900Z,100497.00
2018-08-06T05:50:53.132Z,100502.00
2018-08-06T05:55:56.259Z,100521.00
2018-08-06T06:00:59.410Z,100521.00
2018-08-06T06:06:02.678Z,100526.00
2018-08-06T06:11:06.121Z,100524.00
2018-08-06T06:16:09.229Z,100526.00
2018-08-06T06:21:12.541Z,100526.00
2018-08-06T06:26:15.619Z,100518.00
2018-08-06T06:31:20.695Z,100503.00
2018-08-06T06:36:23.995Z,100502.00
2018-08-06T06:41:26.993Z,100508.00
2018-08-06T06:46:30.192Z,100517.00
2018-08-06T06:51:33.139Z,100498.00
2018-08-06T06:56:36.154Z,100495.00
2018-08-06T07:01:39.420Z,100505.00
2018-08-06T07:06:42.479Z,100509.00
2018-08-06T07:11:45.575Z,100488.00
2018-08-06T07:16:48.595Z,100495.00
2018-08-06T07:21:51.652Z,100485.00
2018-08-06T07:26:54.963Z,100465.00
2018-08-06T07:31:58.120Z,100473.00
2018-08-06T07:37:01.253Z,100467.00
2018-08-06T07:42:04.473Z,100473.00
2018-08-06T07:47:07.632Z,100472.00
2018-08-06T07:52:10.801Z,100471.00
2018-08-06T07:57:13.783Z,100472.00
2018-08-06T08:02:16.850Z,100459.00
2018-08-06T08:07:20.120Z,100462.00
2018-08-06T08:12:23.424Z,100462.00
2018-08-06T08:17:26.514Z,100467.00
2018-08-06T08:22:29.525Z,100458.00
2018-08-06T08:27:32.677Z,100463.00
2018-08-06T08:32:35.947Z,100471.00
2018-08-06T08:37:40.307Z,100461.00
2018-08-06T08:42:43.797Z,100460.00
2018-08-06T08:47:46.948Z,100443.00
2018-08-06T08:52:50.074Z,100427.00
2018-08-06T08:57:53.329Z,100432.00
2018-08-06T09:02:56.534Z,100415.00
2018-08-06T09:07:59.596Z,100413.00
2018-08-06T09:13:02.659Z,100396.00
2018-08-06T09:18:05.944Z,100395.00
2018-08-06T09:23:08.937Z,100397.00
2018-08-06T09:28:12.067Z,100405.00
2018-08-06T09:33:15.136Z,100392.00
2018-08-06T09:38:18.283Z,100397.00
2018-08-06T09:43:21.263Z,100391.00
2018-08-06T09:48:24.612Z,100395.00
2018-08-06T09:53:27.668Z,100384.00
2018-08-06T09:58:30.830Z,100370.00
2018-08-06T10:03:34.018Z,100362.00
2018-08-06T10:08:37.008Z,100367.00
2018-08-06T10:13:40.057Z,100340.00
2018-08-06T10:18:43.309Z,100337.00
2018-08-06T10:23:46.589Z,100345.00
2018-08-06T10:28:49.625Z,100336.00
2018-08-06T10:33:53.247Z,100324.00
2018-08-06T10:38:56.442Z,100320.00
2018-08-06T10:43:59.423Z,100317.00
2018-08-06T10:49:02.537Z,100311.00
2018-08-06T10:54:05.835Z,100307.00
2018-08-06T10:59:08.862Z,100311.00
2018-08-06T11:04:11.896Z,100300.00
2018-08-06T11:09:14.886Z,100299.00
2018-08-06T11:14:18.112Z,100303.00
2018-08-06T11:19:21.324Z,100287.00
2018-08-06T11:24:24.660Z,100281.00
2018-08-06T11:29:27.668Z,100277.00
2018-08-06T11:34:30.960Z,100282.00
2018-08-06T11:39:33.974Z,100265.00
2018-08-06T11:44:37.256Z,100251.00
2018-08-06T11:49:41.307Z,100240.00
2018-08-06T11:54:44.615Z,100238.00
2018-08-06T11:59:47.764Z,100236.00
2018-08-06T12:04:51.023Z,100227.00
2018-08-06T12:09:54.105Z,100221.00
2018-08-06T12:14:57.062Z,100222.00
2018-08-06T12:20:00.379Z,100224.00
2018-08-06T12:25:05.309Z,100213.00
2018-08-06T12:30:12.147Z,100211.00
2018-08-06T12:35:15.918Z,100203.00
2018-08-06T12:40:20.211Z,100205.00
2018-08-06T12:45:23.286Z,100207.00
2018-08-06T12:50:26.437Z,100195.00
2018-08-06T12:55:29.624Z,100189.00
2018-08-06T13:00:32.669Z,100176.00
2018-08-06T13:05:35.880Z,100179.00
2018-08-06T13:10:39.055Z,100172.00
2018-08-06T13:15:42.128Z,100166.00
2018-08-06T13:20:45.425Z,100163.00
2018-08-06T13:25:48.616Z,100159.00
2018-08-06T13:30:51.651Z,100161.00
2018-08-06T13:35:54.767Z,100148.00
2018-08-06T13:40:57.937Z,100146.00
2018-08-06T13:46:01.168Z,100139.00
2018-08-06T13:51:04.372Z,100133.00
2018-08-06T13:56:07.789Z,100121.00
2018-08-06T14:01:11.109Z,100119.00
2018-08-06T14:06:14.400Z,100113.00
2018-08-06T14:11:17.740Z,100105.00
2018-08-06T14:16:21.015Z,100102.00
2018-08-06T14:21:24.154Z,100095.00
2018-08-06T14:26:27.315Z,100098.00
2018-08-06T14:31:30.585Z,100084.00
2018-08-06T14:36:33.852Z,100076.00
2018-08-06T14:41:37.116Z,100075.00
2018-08-06T14:46:40.363Z,100059.00
2018-08-06T14:51:43.459Z,100060.00
2018-08-06T14:56:46.427Z,100064.00
2018-08-06T15:01:49.465Z,100052.00
2018-08-06T15:06:52.618Z,100052.00
2018-08-06T15:11:55.640Z,100050.00
2018-08-06T15:16:59.042Z,100053.00
2018-08-06T15:22:02.428Z,100042.00
2018-08-06T15:27:05.959Z,100038.00
2018-08-06T15:32:09.067Z,100031.00
2018-08-06T15:37:12.471Z,100026.00
2018-08-06T15:42:15.871Z,100021.00
2018-08-06T15:47:18.940Z,100026.00
2018-08-06T15:52:22.345Z,100012.00
2018-08-06T15:57:25.593Z,100008.00
2018-08-06T16:02:29.019Z,100000.00
2018-08-06T16:07:32.341Z,99994.00
2018-08-06T16:12:35.503Z,99978.00
2018-08-06T16:17:39.576Z,99989.00
2018-08-06T16:22:42.818Z,99982.00
2018-08-06T16:27:46.049Z,99977.00
2018-08-06T16:32:49.610Z,99972.00
2018-08-06T16:37:55.854Z,99968.00
2018-08-06T16:42:58.880Z,99968.00
2018-08-06T16:48:02.066Z,99959.00
2018-08-06T16:53:05.282Z,99961.00
2018-08-06T16:58:08.611Z,99951.00
2018-08-06T17:03:11.760Z,99940.00
2018-08-06T17:08:14.858Z,99937.00
2018-08-06T17:13:18.104Z,99935.00
2018-08-06T17:18:21.258Z,99943.00
2018-08-06T17:23:24.529Z,99949.00
2018-08-06T17:28:27.611Z,99944.00
2018-08-06T17:33:30.859Z,99951.00
2018-08-06T17:38:34.132Z,99939.00
2018-08-06T17:43:37.341Z,99937.00
2018-08-06T17:48:40.392Z,99938.00
2018-08-06T17:53:43.704Z,99938.00
2018-08-06T17:58:46.908Z,99936.00
2018-08-06T18:03:50.104Z,99931.00
2018-08-06T18:08:53.468Z,99934.00
2018-08-06T18:13:56.667Z,99939.00
2018-08-06T18:18:59.873Z,99937.00
2018-08-06T18:24:03.391Z,99933.00
2018-08-06T18:29:06.881Z,99932.00
2018-08-06T18:34:10.105Z,99927.00
2018-08-06T18:39:13.400Z,99922.00
2018-08-06T18:44:16.504Z,99917.00
2018-08-06T18:49:19.697Z,99907.00
2018-08-06T18:54:22.835Z,99913.00
2018-08-06T18:59:25.884Z,99906.00
2018-08-06T19:04:29.100Z,99899.00
2018-08-06T19:09:32.228Z,99908.00
2018-08-06T19:14:35.380Z,99901.00
2018-08-06T19:19:38.456Z,99903.00
2018-08-06T19:24:47.400Z,99895.00
2018-08-06T19:29:50.494Z,99894.00
2018-08-06T19:34:53.847Z,99902.00
2018-08-06T19:39:56.896Z,99899.00
2018-08-06T19:44:59.948Z,99895.00
2018-08-06T19:50:09.657Z,99895.00
2018-08-06T19:55:18.289Z,99900.00
2018-08-06T20:00:23.713Z,99897.00
2018-08-06T20:05:26.784Z,99895.00
2018-08-06T20:10:29.935Z,99909.00
2018-08-06T20:15:33.103Z,99902.00
2018-08-06T20:20:36.416Z,99915.00
2018-08-06T20:25:39.464Z,99902.00
2018-08-06T20:30:42.730Z,99903.00
2018-08-06T20:35:45.761Z,99905.00
2018-08-06T20:40:48.870Z,99904.00
2018-08-06T20:45:52.155Z,99898.00
2018-08-06T20:50:55.329Z,99897.00
2018-08-06T20:55:58.639Z,99902.00
2018-08-06T21:01:01.733Z,99903.00
2018-08-06T21:06:04.844Z,99905.00
2018-08-06T21:11:08.201Z,99901.00
2018-08-06T21:16:11.509Z,99901.00
2018-08-06T21:21:14.869Z,99905.00
2018-08-06T21:26:17.948Z,99904.00
2018-08-06T21:31:21.171Z,99905.00
2018-08-06T21:36:24.193Z,99902.00
2018-08-06T21:41:27.230Z,99899.00
2018-08-06T21:46:30.310Z,99900.00
2018-08-06T21:51:33.532Z,99897.00
2018-08-06T21:56:36.614Z,99899.00
2018-08-06T22:01:39.739Z,99897.00
2018-08-06T22:06:42.763Z,99890.00
2018-08-06T22:11:45.980Z,99888.00
2018-08-06T22:16:49.072Z,99895.00
2018-08-06T22:21:52.231Z,99892.00
2018-08-06T22:26:55.412Z,99884.00
2018-08-06T22:31:58.524Z,99878.00
2018-08-06T22:37:01.668Z,99874.00
2018-08-06T22:42:04.704Z,99877.00
2018-08-06T22:47:07.920Z,99865.00
2018-08-06T22:52:10.926Z,99874.00
2018-08-06T22:57:14.003Z,99859.00
2018-08-06T23:02:17.045Z,99861.00
2018-08-06T23:07:20.055Z,99855.00
2018-08-06T23:12:23.295Z,99853.00
2018-08-06T23:17:26.347Z,99844.00
2018-08-06T23:22:29.350Z,99836.00
2018-08-06T23:27:32.526Z,99831.00
2018-08-06T23:32:35.679Z,99836.00
2018-08-06T23:37:39.746Z,99827.00
2018-08-06T23:42:43.200Z,99841.00
2018-08-06T23:47:46.346Z,99840.00
2018-08-06T23:52:49.393Z,99829.00
2018-08-06T23:57:55.249Z,99824.00
